Paliseul, Belgium
Current Conditions -  °F | °C
As of 9:55 PM on Tuesday 25 Nov 2014 (Local Time) from EBFS Reporting Station
Broken Clouds Broken Clouds  
Wind Chill: 40°   Ceiling: 13000
Heat Index: 45°   Visibility: 6mi
Dew Point: 39°   Wind: 8mph
Humidity: 81%   Direction: 110°ESE
Pressure: 30.03"   Gusts: NA
Location:  49.9°N, 5.14°E
Report Text: EBFS 252055Z 11007KT 9999 FEW100 BKN130 07/04 Q1017 BLU
Loading
Personal Weather Stations






























Interactive Weather Map New forecast layout! Learn more

10-Day Weather Forecast

Advertisements
Track Severe Weather on mobile